sensor_id;sensor_type;location;lat;lon;timestamp;pressure;altitude;pressure_sealevel;temperature;humidity
23589;BME280;11972;48.078;11.876;2023-02-11T00:03:21;97243.16;;;-5.73;100.00
23589;BME280;11972;48.078;11.876;2023-02-11T00:07:22;97245.72;;;-5.71;100.00
23589;BME280;11972;48.078;11.876;2023-02-11T00:11:27;97239.69;;;-5.72;100.00
23589;BME280;11972;48.078;11.876;2023-02-11T00:15:30;97240.66;;;-5.75;100.00
23589;BME280;11972;48.078;11.876;2023-02-11T00:19:30;97241.56;;;-5.77;100.00
23589;BME280;11972;48.078;11.876;2023-02-11T00:23:31;97244.13;;;-5.77;100.00
23589;BME280;11972;48.078;11.876;2023-02-11T00:27:32;97244.22;;;-5.80;100.00
23589;BME280;11972;48.078;11.876;2023-02-11T00:31:32;97245.94;;;-5.81;100.00
23589;BME280;11972;48.078;11.876;2023-02-11T00:35:32;97242.53;;;-5.81;100.00
23589;BME280;11972;48.078;11.876;2023-02-11T00:39:35;97234.88;;;-5.84;100.00
23589;BME280;11972;48.078;11.876;2023-02-11T00:43:36;97227.97;;;-5.82;100.00
23589;BME280;11972;48.078;11.876;2023-02-11T00:47:36;97234.09;;;-5.86;100.00
23589;BME280;11972;48.078;11.876;2023-02-11T00:51:37;97224.75;;;-5.90;100.00
23589;BME280;11972;48.078;11.876;2023-02-11T00:55:37;97230.00;;;-5.93;100.00
23589;BME280;11972;48.078;11.876;2023-02-11T00:59:37;97216.31;;;-5.94;100.00
23589;BME280;11972;48.078;11.876;2023-02-11T01:03:38;97227.50;;;-5.95;100.00
23589;BME280;11972;48.078;11.876;2023-02-11T01:07:39;97223.25;;;-5.96;100.00
23589;BME280;11972;48.078;11.876;2023-02-11T01:11:39;97219.81;;;-5.96;100.00
23589;BME280;11972;48.078;11.876;2023-02-11T01:15:39;97206.19;;;-6.00;100.00
23589;BME280;11972;48.078;11.876;2023-02-11T01:19:40;97210.56;;;-6.04;100.00
23589;BME280;11972;48.078;11.876;2023-02-11T01:23:40;97213.22;;;-6.07;100.00
23589;BME280;11972;48.078;11.876;2023-02-11T01:27:41;97208.91;;;-6.06;100.00
23589;BME280;11972;48.078;11.876;2023-02-11T01:31:41;97218.25;;;-6.02;100.00
23589;BME280;11972;48.078;11.876;2023-02-11T01:35:42;97208.06;;;-6.07;100.00
23589;BME280;11972;48.078;11.876;2023-02-11T01:39:42;97209.09;;;-6.12;100.00
23589;BME280;11972;48.078;11.876;2023-02-11T01:43:47;97208.31;;;-6.16;100.00
23589;BME280;11972;48.078;11.876;2023-02-11T01:47:48;97211.84;;;-6.20;100.00
23589;BME280;11972;48.078;11.876;2023-02-11T01:52:22;97208.47;;;-6.22;100.00
23589;BME280;11972;48.078;11.876;2023-02-11T01:56:26;97211.88;;;-6.21;100.00
23589;BME280;11972;48.078;11.876;2023-02-11T02:00:46;97208.56;;;-6.25;100.00
23589;BME280;11972;48.078;11.876;2023-02-11T02:04:54;97205.16;;;-6.27;100.00
23589;BME280;11972;48.078;11.876;2023-02-11T02:09:08;97206.94;;;-6.29;100.00
23589;BME280;11972;48.078;11.876;2023-02-11T02:13:09;97201.81;;;-6.29;100.00
23589;BME280;11972;48.078;11.876;2023-02-11T02:17:23;97191.59;;;-6.32;100.00
23589;BME280;11972;48.078;11.876;2023-02-11T02:31:12;97179.94;;;-6.45;100.00
23589;BME280;11972;48.078;11.876;2023-02-11T02:35:49;97170.59;;;-6.50;100.00
23589;BME280;11972;48.078;11.876;2023-02-11T02:39:52;97161.88;;;-6.44;100.00
23589;BME280;11972;48.078;11.876;2023-02-11T02:43:53;97158.28;;;-6.38;100.00
23589;BME280;11972;48.078;11.876;2023-02-11T02:47:54;97154.81;;;-6.36;100.00
23589;BME280;11972;48.078;11.876;2023-02-11T02:52:15;97155.59;;;-6.34;100.00
23589;BME280;11972;48.078;11.876;2023-02-11T02:56:35;97152.03;;;-6.28;100.00
23589;BME280;11972;48.078;11.876;2023-02-11T03:00:58;97148.75;;;-6.33;100.00
23589;BME280;11972;48.078;11.876;2023-02-11T03:05:21;97154.53;;;-6.25;100.00
23589;BME280;11972;48.078;11.876;2023-02-11T03:13:38;97141.34;;;-6.13;100.00
23589;BME280;11972;48.078;11.876;2023-02-11T03:17:41;97137.97;;;-6.15;100.00
23589;BME280;11972;48.078;11.876;2023-02-11T03:21:46;97130.31;;;-6.18;100.00
23589;BME280;11972;48.078;11.876;2023-02-11T03:26:20;97127.84;;;-6.21;100.00
23589;BME280;11972;48.078;11.876;2023-02-11T03:30:27;97125.31;;;-6.22;100.00
23589;BME280;11972;48.078;11.876;2023-02-11T03:34:36;97121.56;;;-6.11;100.00
23589;BME280;11972;48.078;11.876;2023-02-11T03:38:46;97108.69;;;-6.11;100.00
23589;BME280;11972;48.078;11.876;2023-02-11T03:43:16;97105.69;;;-6.25;100.00
23589;BME280;11972;48.078;11.876;2023-02-11T03:47:20;97098.94;;;-6.29;100.00
23589;BME280;11972;48.078;11.876;2023-02-11T03:51:23;97114.34;;;-6.29;100.00
23589;BME280;11972;48.078;11.876;2023-02-11T03:55:25;97117.47;;;-6.18;100.00
23589;BME280;11972;48.078;11.876;2023-02-11T03:59:27;97117.19;;;-6.07;100.00
23589;BME280;11972;48.078;11.876;2023-02-11T04:03:28;97115.19;;;-5.97;100.00
23589;BME280;11972;48.078;11.876;2023-02-11T04:07:28;97126.31;;;-5.97;100.00
23589;BME280;11972;48.078;11.876;2023-02-11T04:11:29;97123.97;;;-6.05;100.00
23589;BME280;11972;48.078;11.876;2023-02-11T04:15:29;97133.59;;;-6.11;100.00
23589;BME280;11972;48.078;11.876;2023-02-11T04:19:29;97122.53;;;-6.15;100.00
23589;BME280;11972;48.078;11.876;2023-02-11T04:23:30;97116.69;;;-6.21;100.00
23589;BME280;11972;48.078;11.876;2023-02-11T04:27:30;97117.78;;;-6.30;100.00
23589;BME280;11972;48.078;11.876;2023-02-11T04:31:31;97132.25;;;-6.26;100.00
23589;BME280;11972;48.078;11.876;2023-02-11T04:35:31;97138.16;;;-6.21;100.00
23589;BME280;11972;48.078;11.876;2023-02-11T04:39:31;97141.56;;;-6.22;100.00
23589;BME280;11972;48.078;11.876;2023-02-11T04:43:32;97144.97;;;-6.20;100.00
23589;BME280;11972;48.078;11.876;2023-02-11T04:47:32;97134.59;;;-6.17;100.00
23589;BME280;11972;48.078;11.876;2023-02-11T04:51:33;97139.75;;;-6.17;100.00
23589;BME280;11972;48.078;11.876;2023-02-11T04:55:33;97147.50;;;-6.18;100.00
23589;BME280;11972;48.078;11.876;2023-02-11T04:59:33;97150.88;;;-6.16;100.00
23589;BME280;11972;48.078;11.876;2023-02-11T05:03:34;97161.06;;;-6.13;100.00
23589;BME280;11972;48.078;11.876;2023-02-11T05:07:34;97159.31;;;-6.11;100.00
23589;BME280;11972;48.078;11.876;2023-02-11T05:11:34;97157.63;;;-6.12;100.00
23589;BME280;11972;48.078;11.876;2023-02-11T05:15:35;97154.94;;;-6.08;100.00
23589;BME280;11972;48.078;11.876;2023-02-11T05:19:36;97164.06;;;-5.96;100.00
23589;BME280;11972;48.078;11.876;2023-02-11T05:23:37;97151.31;;;-5.71;100.00
23589;BME280;11972;48.078;11.876;2023-02-11T05:27:37;97143.38;;;-5.35;100.00
23589;BME280;11972;48.078;11.876;2023-02-11T05:31:38;97134.53;;;-4.99;100.00
23589;BME280;11972;48.078;11.876;2023-02-11T05:35:38;97129.16;;;-4.64;100.00
23589;BME280;11972;48.078;11.876;2023-02-11T05:39:38;97124.88;;;-4.39;100.00
23589;BME280;11972;48.078;11.876;2023-02-11T05:43:39;97119.59;;;-4.11;100.00
23589;BME280;11972;48.078;11.876;2023-02-11T05:47:39;97119.94;;;-3.96;100.00
23589;BME280;11972;48.078;11.876;2023-02-11T05:51:39;97125.28;;;-4.01;100.00
23589;BME280;11972;48.078;11.876;2023-02-11T05:55:40;97122.44;;;-3.93;100.00
23589;BME280;11972;48.078;11.876;2023-02-11T05:59:40;97133.66;;;-3.94;100.00
23589;BME280;11972;48.078;11.876;2023-02-11T06:03:41;97123.66;;;-3.80;100.00
23589;BME280;11972;48.078;11.876;2023-02-11T06:07:41;97130.63;;;-3.59;100.00
23589;BME280;11972;48.078;11.876;2023-02-11T06:11:41;97124.91;;;-3.43;100.00
23589;BME280;11972;48.078;11.876;2023-02-11T06:15:42;97121.84;;;-3.31;100.00
23589;BME280;11972;48.078;11.876;2023-02-11T06:19:42;97127.50;;;-3.21;100.00
23589;BME280;11972;48.078;11.876;2023-02-11T06:23:43;97116.75;;;-3.11;100.00
23589;BME280;11972;48.078;11.876;2023-02-11T06:27:43;97122.22;;;-2.96;100.00
23589;BME280;11972;48.078;11.876;2023-02-11T06:31:43;97122.94;;;-2.71;100.00
23589;BME280;11972;48.078;11.876;2023-02-11T06:35:44;97121.03;;;-2.45;100.00
23589;BME280;11972;48.078;11.876;2023-02-11T06:39:44;97125.41;;;-2.27;100.00
23589;BME280;11972;48.078;11.876;2023-02-11T06:43:45;97123.81;;;-2.09;100.00
23589;BME280;11972;48.078;11.876;2023-02-11T06:47:45;97119.59;;;-1.91;100.00
23589;BME280;11972;48.078;11.876;2023-02-11T06:51:46;97110.31;;;-1.77;100.00
23589;BME280;11972;48.078;11.876;2023-02-11T06:55:46;97119.75;;;-1.57;100.00
23589;BME280;11972;48.078;11.876;2023-02-11T06:59:46;97106.72;;;-1.36;100.00
23589;BME280;11972;48.078;11.876;2023-02-11T07:03:47;97102.25;;;-1.14;100.00
23589;BME280;11972;48.078;11.876;2023-02-11T07:07:47;97108.09;;;-0.91;100.00
23589;BME280;11972;48.078;11.876;2023-02-11T07:11:47;97121.41;;;-0.80;100.00
23589;BME280;11972;48.078;11.876;2023-02-11T07:15:48;97128.81;;;-1.09;100.00
23589;BME280;11972;48.078;11.876;2023-02-11T07:19:48;97121.38;;;-1.16;100.00
23589;BME280;11972;48.078;11.876;2023-02-11T07:23:49;97115.41;;;-1.00;100.00
23589;BME280;11972;48.078;11.876;2023-02-11T07:27:50;97112.56;;;-0.76;100.00
23589;BME280;11972;48.078;11.876;2023-02-11T07:31:50;97112.88;;;-0.47;100.00
23589;BME280;11972;48.078;11.876;2023-02-11T07:35:53;97103.50;;;-0.33;100.00
23589;BME280;11972;48.078;11.876;2023-02-11T07:39:54;97108.00;;;-0.19;100.00
23589;BME280;11972;48.078;11.876;2023-02-11T07:43:54;97106.06;;;0.02;100.00
23589;BME280;11972;48.078;11.876;2023-02-11T07:47:54;97123.53;;;0.16;100.00
23589;BME280;11972;48.078;11.876;2023-02-11T07:51:55;97134.19;;;0.44;100.00
23589;BME280;11972;48.078;11.876;2023-02-11T07:55:55;97132.72;;;0.72;100.00
23589;BME280;11972;48.078;11.876;2023-02-11T07:59:56;97120.81;;;0.99;100.00
23589;BME280;11972;48.078;11.876;2023-02-11T08:03:57;97102.16;;;1.23;100.00
23589;BME280;11972;48.078;11.876;2023-02-11T08:07:58;97094.16;;;1.42;100.00
23589;BME280;11972;48.078;11.876;2023-02-11T08:11:59;97080.53;;;1.53;100.00
23589;BME280;11972;48.078;11.876;2023-02-11T08:15:59;97071.38;;;1.45;100.00
23589;BME280;11972;48.078;11.876;2023-02-11T08:19:59;97066.00;;;1.48;100.00
23589;BME280;11972;48.078;11.876;2023-02-11T08:24:01;97076.88;;;1.55;100.00
23589;BME280;11972;48.078;11.876;2023-02-11T08:28:02;97075.50;;;1.94;100.00
23589;BME280;11972;48.078;11.876;2023-02-11T08:32:03;97070.47;;;2.34;100.00
23589;BME280;11972;48.078;11.876;2023-02-11T08:36:12;97076.97;;;2.69;100.00
23589;BME280;11972;48.078;11.876;2023-02-11T08:40:16;97082.25;;;2.82;100.00
23589;BME280;11972;48.078;11.876;2023-02-11T08:44:18;97071.53;;;3.14;100.00
23589;BME280;11972;48.078;11.876;2023-02-11T08:48:19;97077.03;;;3.36;100.00
23589;BME280;11972;48.078;11.876;2023-02-11T08:52:19;97081.66;;;3.45;100.00
23589;BME280;11972;48.078;11.876;2023-02-11T08:56:20;97090.25;;;3.47;100.00
23589;BME280;11972;48.078;11.876;2023-02-11T09:00:22;97109.06;;;3.53;100.00
23589;BME280;11972;48.078;11.876;2023-02-11T09:04:25;97107.56;;;3.76;100.00
23589;BME280;11972;48.078;11.876;2023-02-11T09:08:26;97096.19;;;4.02;100.00
23589;BME280;11972;48.078;11.876;2023-02-11T09:12:29;97098.53;;;4.32;100.00
23589;BME280;11972;48.078;11.876;2023-02-11T09:16:33;97079.66;;;4.53;100.00
23589;BME280;11972;48.078;11.876;2023-02-11T09:20:36;97086.34;;;4.44;100.00
23589;BME280;11972;48.078;11.876;2023-02-11T09:24:37;97092.66;;;4.41;100.00
23589;BME280;11972;48.078;11.876;2023-02-11T09:28:37;97077.25;;;4.62;100.00
23589;BME280;11972;48.078;11.876;2023-02-11T09:32:37;97071.81;;;5.02;100.00
23589;BME280;11972;48.078;11.876;2023-02-11T09:36:38;97067.56;;;5.36;100.00
23589;BME280;11972;48.078;11.876;2023-02-11T09:40:43;97066.63;;;5.37;100.00
23589;BME280;11972;48.078;11.876;2023-02-11T09:44:51;97068.13;;;5.29;100.00
23589;BME280;11972;48.078;11.876;2023-02-11T09:48:53;97060.19;;;5.17;100.00
23589;BME280;11972;48.078;11.876;2023-02-11T09:53:00;97050.34;;;5.21;100.00
23589;BME280;11972;48.078;11.876;2023-02-11T09:57:02;97041.31;;;5.25;100.00
23589;BME280;11972;48.078;11.876;2023-02-11T10:01:33;97032.16;;;5.31;100.00
23589;BME280;11972;48.078;11.876;2023-02-11T10:18:45;97037.31;;;6.47;100.00
23589;BME280;11972;48.078;11.876;2023-02-11T10:22:53;97029.78;;;6.65;100.00
23589;BME280;11972;48.078;11.876;2023-02-11T10:26:54;97038.16;;;7.14;100.00
23589;BME280;11972;48.078;11.876;2023-02-11T10:30:58;97040.09;;;7.44;100.00
23589;BME280;11972;48.078;11.876;2023-02-11T10:35:12;97043.22;;;7.38;100.00
23589;BME280;11972;48.078;11.876;2023-02-11T10:39:22;97019.53;;;7.17;100.00
23589;BME280;11972;48.078;11.876;2023-02-11T10:43:26;97022.34;;;6.93;100.00
23589;BME280;11972;48.078;11.876;2023-02-11T10:47:29;97023.94;;;6.62;100.00
23589;BME280;11972;48.078;11.876;2023-02-11T10:51:35;97015.69;;;6.66;100.00
23589;BME280;11972;48.078;11.876;2023-02-11T10:55:40;97021.75;;;6.78;100.00
23589;BME280;11972;48.078;11.876;2023-02-11T10:59:47;97018.75;;;6.83;100.00
23589;BME280;11972;48.078;11.876;2023-02-11T11:03:50;97028.00;;;6.55;100.00
23589;BME280;11972;48.078;11.876;2023-02-11T11:16:51;96996.06;;;6.93;100.00
23589;BME280;11972;48.078;11.876;2023-02-11T11:20:57;97000.47;;;7.04;100.00
23589;BME280;11972;48.078;11.876;2023-02-11T11:24:58;96996.53;;;6.87;100.00
23589;BME280;11972;48.078;11.876;2023-02-11T11:29:31;97006.22;;;6.86;100.00
23589;BME280;11972;48.078;11.876;2023-02-11T11:33:34;96997.56;;;7.07;100.00
23589;BME280;11972;48.078;11.876;2023-02-11T11:37:36;96995.31;;;7.34;100.00
23589;BME280;11972;48.078;11.876;2023-02-11T11:41:48;96996.50;;;7.41;100.00
23589;BME280;11972;48.078;11.876;2023-02-11T11:45:57;96987.47;;;7.55;99.09
23589;BME280;11972;48.078;11.876;2023-02-11T11:54:30;96997.06;;;8.08;93.40
23589;BME280;11972;48.078;11.876;2023-02-11T11:58:31;97000.84;;;8.15;92.49
23589;BME280;11972;48.078;11.876;2023-02-11T12:11:33;97008.69;;;7.42;86.15
23589;BME280;11972;48.078;11.876;2023-02-11T12:16:02;97003.56;;;7.41;86.08
23589;BME280;11972;48.078;11.876;2023-02-11T12:20:20;96987.41;;;7.45;88.57
23589;BME280;11972;48.078;11.876;2023-02-11T12:29:11;96972.75;;;7.53;91.72
23589;BME280;11972;48.078;11.876;2023-02-11T12:42:23;96951.84;;;7.72;92.19
23589;BME280;11972;48.078;11.876;2023-02-11T12:51:26;96945.31;;;7.87;89.53
23589;BME280;11972;48.078;11.876;2023-02-11T12:55:37;96944.00;;;8.03;91.79
23589;BME280;11972;48.078;11.876;2023-02-11T13:03:50;96938.91;;;8.11;86.67
23589;BME280;11972;48.078;11.876;2023-02-11T13:07:57;96945.66;;;8.04;84.19
23589;BME280;11972;48.078;11.876;2023-02-11T13:17:24;96919.50;;;7.81;84.41
23589;BME280;11972;48.078;11.876;2023-02-11T13:25:49;96910.97;;;7.16;86.47
23589;BME280;11972;48.078;11.876;2023-02-11T13:30:07;96904.50;;;6.88;89.03
23589;BME280;11972;48.078;11.876;2023-02-11T13:34:52;96921.03;;;6.79;89.68
23589;BME280;11972;48.078;11.876;2023-02-11T13:38:59;96907.75;;;7.13;87.31
23589;BME280;11972;48.078;11.876;2023-02-11T13:43:03;96903.75;;;7.60;85.07
23589;BME280;11972;48.078;11.876;2023-02-11T13:47:05;96912.69;;;8.00;82.60
23589;BME280;11972;48.078;11.876;2023-02-11T13:51:11;96916.63;;;8.15;78.09
23589;BME280;11972;48.078;11.876;2023-02-11T14:03:36;96896.09;;;8.09;71.05
23589;BME280;11972;48.078;11.876;2023-02-11T14:12:32;96904.88;;;8.29;79.40
23589;BME280;11972;48.078;11.876;2023-02-11T14:25:21;96909.66;;;8.14;75.34
23589;BME280;11972;48.078;11.876;2023-02-11T14:29:34;96912.84;;;8.08;76.62
23589;BME280;11972;48.078;11.876;2023-02-11T14:42:19;96916.06;;;8.21;80.15
23589;BME280;11972;48.078;11.876;2023-02-11T14:46:22;96923.72;;;8.24;80.04
23589;BME280;11972;48.078;11.876;2023-02-11T14:50:27;96932.41;;;8.15;76.64
23589;BME280;11972;48.078;11.876;2023-02-11T14:54:28;96931.94;;;8.10;74.32
23589;BME280;11972;48.078;11.876;2023-02-11T14:58:31;96926.09;;;7.96;73.08
23589;BME280;11972;48.078;11.876;2023-02-11T15:02:37;96922.84;;;7.83;76.20
23589;BME280;11972;48.078;11.876;2023-02-11T15:06:43;96922.47;;;7.67;77.44
23589;BME280;11972;48.078;11.876;2023-02-11T15:10:46;96919.34;;;7.52;79.25
23589;BME280;11972;48.078;11.876;2023-02-11T15:14:48;96923.81;;;7.40;79.31
23589;BME280;11972;48.078;11.876;2023-02-11T15:18:52;96938.28;;;7.25;81.17
23589;BME280;11972;48.078;11.876;2023-02-11T15:22:59;96931.31;;;7.24;84.02
23589;BME280;11972;48.078;11.876;2023-02-11T15:27:12;96932.19;;;7.25;86.31
23589;BME280;11972;48.078;11.876;2023-02-11T15:31:16;96942.34;;;7.18;86.78
23589;BME280;11972;48.078;11.876;2023-02-11T15:35:17;96938.63;;;7.00;87.03
23589;BME280;11972;48.078;11.876;2023-02-11T15:39:28;96947.97;;;6.92;88.48
23589;BME280;11972;48.078;11.876;2023-02-11T15:47:49;96953.22;;;6.92;91.15
23589;BME280;11972;48.078;11.876;2023-02-11T15:51:51;96953.66;;;6.97;92.33
23589;BME280;11972;48.078;11.876;2023-02-11T15:56:06;96941.94;;;7.02;93.43
23589;BME280;11972;48.078;11.876;2023-02-11T16:00:20;96953.06;;;6.94;94.98
23589;BME280;11972;48.078;11.876;2023-02-11T16:04:24;96961.34;;;6.78;96.38
23589;BME280;11972;48.078;11.876;2023-02-11T16:08:27;96965.44;;;6.71;98.30
23589;BME280;11972;48.078;11.876;2023-02-11T16:12:31;96975.00;;;6.61;99.42
23589;BME280;11972;48.078;11.876;2023-02-11T16:16:33;96979.56;;;6.47;100.00
23589;BME280;11972;48.078;11.876;2023-02-11T16:20:34;96978.38;;;6.40;100.00
23589;BME280;11972;48.078;11.876;2023-02-11T16:24:35;96983.38;;;6.32;100.00
23589;BME280;11972;48.078;11.876;2023-02-11T16:28:37;96979.69;;;6.12;100.00
23589;BME280;11972;48.078;11.876;2023-02-11T16:32:38;96983.47;;;5.86;100.00
23589;BME280;11972;48.078;11.876;2023-02-11T16:36:38;96990.44;;;5.63;100.00
23589;BME280;11972;48.078;11.876;2023-02-11T16:40:39;96996.34;;;5.42;100.00
23589;BME280;11972;48.078;11.876;2023-02-11T16:44:39;97001.06;;;5.26;100.00
23589;BME280;11972;48.078;11.876;2023-02-11T16:48:40;97007.66;;;5.08;100.00
23589;BME280;11972;48.078;11.876;2023-02-11T16:52:41;97011.38;;;4.92;100.00
23589;BME280;11972;48.078;11.876;2023-02-11T16:56:43;97008.59;;;4.83;100.00
23589;BME280;11972;48.078;11.876;2023-02-11T17:00:45;97009.97;;;4.76;100.00
23589;BME280;11972;48.078;11.876;2023-02-11T17:04:46;97021.00;;;4.68;100.00
23589;BME280;11972;48.078;11.876;2023-02-11T17:08:46;97034.84;;;4.57;100.00
23589;BME280;11972;48.078;11.876;2023-02-11T17:12:47;97036.03;;;4.40;100.00
23589;BME280;11972;48.078;11.876;2023-02-11T17:16:48;97028.81;;;4.18;100.00
23589;BME280;11972;48.078;11.876;2023-02-11T17:20:48;97040.13;;;3.93;100.00
23589;BME280;11972;48.078;11.876;2023-02-11T17:24:48;97060.84;;;3.71;100.00
23589;BME280;11972;48.078;11.876;2023-02-11T17:28:49;97068.72;;;3.57;100.00
23589;BME280;11972;48.078;11.876;2023-02-11T17:32:49;97062.44;;;3.46;100.00
23589;BME280;11972;48.078;11.876;2023-02-11T17:36:50;97068.16;;;3.39;100.00
23589;BME280;11972;48.078;11.876;2023-02-11T17:40:58;97082.66;;;3.30;100.00
23589;BME280;11972;48.078;11.876;2023-02-11T17:44:59;97075.22;;;3.24;100.00
23589;BME280;11972;48.078;11.876;2023-02-11T17:49:00;97075.66;;;3.04;100.00
23589;BME280;11972;48.078;11.876;2023-02-11T17:53:01;97076.28;;;2.80;100.00
23589;BME280;11972;48.078;11.876;2023-02-11T17:57:01;97075.66;;;2.62;100.00
23589;BME280;11972;48.078;11.876;2023-02-11T18:01:02;97086.94;;;2.63;100.00
23589;BME280;11972;48.078;11.876;2023-02-11T18:05:02;97084.88;;;2.68;100.00
23589;BME280;11972;48.078;11.876;2023-02-11T18:09:03;97090.00;;;2.69;100.00
23589;BME280;11972;48.078;11.876;2023-02-11T18:13:03;97104.91;;;2.67;100.00
23589;BME280;11972;48.078;11.876;2023-02-11T18:17:04;97095.13;;;2.71;100.00
23589;BME280;11972;48.078;11.876;2023-02-11T18:21:04;97098.13;;;2.65;100.00
23589;BME280;11972;48.078;11.876;2023-02-11T18:25:07;97091.03;;;2.53;100.00
23589;BME280;11972;48.078;11.876;2023-02-11T18:29:08;97095.53;;;2.36;100.00
23589;BME280;11972;48.078;11.876;2023-02-11T18:33:08;97103.88;;;2.13;100.00
23589;BME280;11972;48.078;11.876;2023-02-11T18:37:11;97106.84;;;1.92;100.00
23589;BME280;11972;48.078;11.876;2023-02-11T18:41:13;97095.16;;;1.69;100.00
23589;BME280;11972;48.078;11.876;2023-02-11T18:45:13;97101.91;;;1.58;100.00
23589;BME280;11972;48.078;11.876;2023-02-11T18:49:14;97095.38;;;1.51;100.00
23589;BME280;11972;48.078;11.876;2023-02-11T18:53:14;97101.34;;;1.53;100.00
23589;BME280;11972;48.078;11.876;2023-02-11T18:57:15;97105.25;;;1.60;100.00
23589;BME280;11972;48.078;11.876;2023-02-11T19:01:21;97101.94;;;1.72;100.00
23589;BME280;11972;48.078;11.876;2023-02-11T19:05:23;97114.47;;;1.81;100.00
23589;BME280;11972;48.078;11.876;2023-02-11T19:09:29;97106.53;;;1.83;100.00
23589;BME280;11972;48.078;11.876;2023-02-11T19:13:29;97106.06;;;1.76;100.00
23589;BME280;11972;48.078;11.876;2023-02-11T19:17:30;97103.81;;;1.70;100.00
23589;BME280;11972;48.078;11.876;2023-02-11T19:21:31;97113.84;;;1.62;100.00
23589;BME280;11972;48.078;11.876;2023-02-11T19:25:31;97118.22;;;1.61;100.00
23589;BME280;11972;48.078;11.876;2023-02-11T19:29:32;97120.88;;;1.60;100.00
23589;BME280;11972;48.078;11.876;2023-02-11T19:33:34;97114.44;;;1.51;100.00
23589;BME280;11972;48.078;11.876;2023-02-11T19:37:34;97103.28;;;1.49;100.00
23589;BME280;11972;48.078;11.876;2023-02-11T19:41:35;97109.16;;;1.53;100.00
23589;BME280;11972;48.078;11.876;2023-02-11T19:45:36;97097.66;;;1.57;100.00
23589;BME280;11972;48.078;11.876;2023-02-11T19:49:36;97094.44;;;1.52;100.00
23589;BME280;11972;48.078;11.876;2023-02-11T19:53:37;97095.06;;;1.41;100.00
23589;BME280;11972;48.078;11.876;2023-02-11T19:57:37;97103.06;;;1.22;100.00
23589;BME280;11972;48.078;11.876;2023-02-11T20:01:38;97108.22;;;1.08;100.00
23589;BME280;11972;48.078;11.876;2023-02-11T20:05:39;97111.31;;;0.98;100.00
23589;BME280;11972;48.078;11.876;2023-02-11T20:09:42;97112.25;;;0.97;100.00
23589;BME280;11972;48.078;11.876;2023-02-11T20:13:43;97121.31;;;1.06;100.00
23589;BME280;11972;48.078;11.876;2023-02-11T20:17:43;97120.16;;;1.12;100.00
23589;BME280;11972;48.078;11.876;2023-02-11T20:21:45;97120.88;;;1.14;100.00
23589;BME280;11972;48.078;11.876;2023-02-11T20:25:45;97126.19;;;1.28;100.00
23589;BME280;11972;48.078;11.876;2023-02-11T20:29:46;97135.22;;;1.53;100.00
23589;BME280;11972;48.078;11.876;2023-02-11T20:33:46;97140.03;;;1.74;100.00
23589;BME280;11972;48.078;11.876;2023-02-11T20:37:47;97144.53;;;1.87;100.00
23589;BME280;11972;48.078;11.876;2023-02-11T20:41:48;97146.81;;;2.07;100.00
23589;BME280;11972;48.078;11.876;2023-02-11T20:45:48;97144.13;;;2.23;100.00
23589;BME280;11972;48.078;11.876;2023-02-11T20:49:49;97147.69;;;2.36;100.00
23589;BME280;11972;48.078;11.876;2023-02-11T20:53:51;97143.56;;;2.46;100.00
23589;BME280;11972;48.078;11.876;2023-02-11T20:57:51;97145.66;;;2.56;100.00
23589;BME280;11972;48.078;11.876;2023-02-11T21:01:55;97133.34;;;2.58;100.00
23589;BME280;11972;48.078;11.876;2023-02-11T21:05:58;97137.06;;;2.68;100.00
23589;BME280;11972;48.078;11.876;2023-02-11T21:09:59;97143.13;;;2.68;100.00
23589;BME280;11972;48.078;11.876;2023-02-11T21:13:59;97134.84;;;2.76;100.00
23589;BME280;11972;48.078;11.876;2023-02-11T21:18:00;97127.38;;;2.84;100.00
23589;BME280;11972;48.078;11.876;2023-02-11T21:22:00;97136.50;;;2.77;100.00
23589;BME280;11972;48.078;11.876;2023-02-11T21:26:01;97137.91;;;2.68;100.00
23589;BME280;11972;48.078;11.876;2023-02-11T21:30:01;97133.97;;;2.76;100.00
23589;BME280;11972;48.078;11.876;2023-02-11T21:34:03;97127.06;;;2.74;100.00
23589;BME280;11972;48.078;11.876;2023-02-11T21:38:04;97123.63;;;2.74;100.00
23589;BME280;11972;48.078;11.876;2023-02-11T21:42:05;97118.81;;;2.68;100.00
23589;BME280;11972;48.078;11.876;2023-02-11T21:46:10;97108.56;;;2.65;100.00
23589;BME280;11972;48.078;11.876;2023-02-11T21:50:11;97113.84;;;2.63;100.00
23589;BME280;11972;48.078;11.876;2023-02-11T21:54:11;97121.41;;;2.68;100.00
23589;BME280;11972;48.078;11.876;2023-02-11T21:58:12;97103.41;;;2.78;100.00
23589;BME280;11972;48.078;11.876;2023-02-11T22:02:12;97120.25;;;2.86;100.00
23589;BME280;11972;48.078;11.876;2023-02-11T22:06:24;97127.50;;;2.95;100.00
23589;BME280;11972;48.078;11.876;2023-02-11T22:10:25;97133.09;;;3.04;100.00
23589;BME280;11972;48.078;11.876;2023-02-11T22:14:25;97130.00;;;3.11;100.00
23589;BME280;11972;48.078;11.876;2023-02-11T22:18:26;97114.69;;;3.19;100.00
23589;BME280;11972;48.078;11.876;2023-02-11T22:22:27;97129.22;;;3.23;100.00
23589;BME280;11972;48.078;11.876;2023-02-11T22:26:28;97138.66;;;3.26;100.00
23589;BME280;11972;48.078;11.876;2023-02-11T22:30:29;97138.06;;;3.35;100.00
23589;BME280;11972;48.078;11.876;2023-02-11T22:34:30;97134.31;;;3.39;100.00
23589;BME280;11972;48.078;11.876;2023-02-11T22:38:32;97144.66;;;3.41;100.00
23589;BME280;11972;48.078;11.876;2023-02-11T22:42:33;97144.56;;;3.42;100.00
23589;BME280;11972;48.078;11.876;2023-02-11T22:46:35;97139.34;;;3.42;100.00
23589;BME280;11972;48.078;11.876;2023-02-11T22:50:36;97145.69;;;3.38;100.00
23589;BME280;11972;48.078;11.876;2023-02-11T22:54:36;97137.75;;;3.40;100.00
23589;BME280;11972;48.078;11.876;2023-02-11T22:58:38;97143.53;;;3.45;100.00
23589;BME280;11972;48.078;11.876;2023-02-11T23:02:38;97144.16;;;3.48;100.00
23589;BME280;11972;48.078;11.876;2023-02-11T23:06:39;97161.72;;;3.46;100.00